Time;durP1;ratioP1;P1;durP2;ratioP2;P2;SDS_P1;SDS_P2;PMS_P1;PMS_P2;Temp;Humidity;BMP_temperature;BMP_pressure;BME280_temperature;BME280_humidity;BME280_pressure;Samples;Min_cycle;Max_cycle;Signal;HPM_P1;HPM_P2
2022/05/15 00:01:40;;;;;;;11.27;5.78;;;;;;;14.56;70.64;96537.81;5068626;28;20102;-78
2022/05/15 00:04:07;;;;;;;9.27;5.40;;;;;;;14.53;70.79;96536.56;5068558;28;20048;-78
2022/05/15 00:06:34;;;;;;;8.18;6.10;;;;;;;14.46;70.71;96538.22;5069356;28;20048;-78
2022/05/15 00:09:01;;;;;;;601.55;449.73;;;;;;;14.45;70.75;96531.16;5069132;28;20507;-78
2022/05/15 00:11:28;;;;;;;67.95;33.40;;;;;;;14.41;70.64;96525.56;5069887;28;20051;-78
2022/05/15 00:13:55;;;;;;;240.98;120.82;;;;;;;14.40;70.66;96525.88;5069353;28;20652;-78
2022/05/15 00:16:23;;;;;;;11.25;5.65;;;;;;;14.40;70.88;96528.63;5067980;28;20052;-77
2022/05/15 00:18:51;;;;;;;74.05;52.25;;;;;;;14.42;71.39;96524.41;5068716;28;20049;-78
2022/05/15 00:21:18;;;;;;;10.02;5.78;;;;;;;14.48;71.38;96525.03;5068354;28;20044;-78
2022/05/15 00:23:45;;;;;;;9.32;5.50;;;;;;;14.50;70.68;96523.53;5068926;28;20045;-79
2022/05/15 00:26:12;;;;;;;10.68;5.95;;;;;;;14.43;70.84;96519.75;5068032;28;20586;-77
2022/05/15 00:28:38;;;;;;;8.20;5.55;;;;;;;14.38;70.91;96519.97;5068939;28;20045;-77
2022/05/15 00:31:05;;;;;;;11.88;6.28;;;;;;;14.32;71.21;96522.91;5067380;28;20052;-80
2022/05/15 00:33:33;;;;;;;169.25;112.97;;;;;;;14.32;71.28;96525.66;5068823;28;20410;-78
2022/05/15 00:36:00;;;;;;;7.75;5.28;;;;;;;14.31;70.89;96532.28;5071152;28;20522;-78
2022/05/15 00:38:27;;;;;;;22.30;6.82;;;;;;;14.31;70.29;96524.06;5076821;28;20049;-79
2022/05/15 00:40:54;;;;;;;30.83;8.98;;;;;;;14.27;71.03;96534.06;5075699;28;20045;-78
2022/05/15 00:43:41;;;;;;;18.25;7.82;;;;;;;14.23;71.38;96532.34;5074813;28;20040;-78
2022/05/15 00:46:11;;;;;;;9.65;6.05;;;;;;;14.19;72.00;96517.72;5065172;28;20041;-78
2022/05/15 00:48:38;;;;;;;12.57;5.93;;;;;;;14.12;72.46;96521.00;5048956;28;20108;-78
2022/05/15 00:51:12;;;;;;;133.68;113.40;;;;;;;14.12;72.07;96522.94;5048370;28;20067;-78
2022/05/15 00:53:40;;;;;;;613.22;402.02;;;;;;;14.09;71.81;96516.19;5048834;28;20055;-78
2022/05/15 00:56:07;;;;;;;615.90;384.95;;;;;;;14.09;71.58;96522.50;5047916;28;20057;-78
2022/05/15 00:58:39;;;;;;;593.30;344.20;;;;;;;14.08;71.67;96522.81;5048079;28;20408;-77
2022/05/15 01:01:06;;;;;;;121.10;71.05;;;;;;;14.02;71.33;96513.22;5047670;28;20045;-78
2022/05/15 01:03:33;;;;;;;9.55;5.90;;;;;;;13.94;71.44;96511.34;5048628;28;20060;-78
2022/05/15 01:06:00;;;;;;;40.30;8.68;;;;;;;13.88;72.02;96518.16;5048227;28;20053;-78
2022/05/15 01:08:30;;;;;;;15.00;6.53;;;;;;;13.88;72.02;96512.69;5047499;28;20056;-78
2022/05/15 01:10:59;;;;;;;7.70;5.60;;;;;;;13.88;71.78;96512.69;5047767;28;20099;-79
2022/05/15 01:13:28;;;;;;;13.18;5.93;;;;;;;13.86;71.60;96512.22;5047288;28;20059;-77
2022/05/15 01:15:55;;;;;;;7.95;5.65;;;;;;;13.79;72.08;96510.84;5047808;28;20053;-77
2022/05/15 01:18:23;;;;;;;15.65;5.45;;;;;;;13.71;72.81;96510.88;5047229;28;20053;-78
2022/05/15 01:20:54;;;;;;;11.32;6.15;;;;;;;13.68;73.06;96504.16;5047702;28;20049;-78
2022/05/15 01:23:21;;;;;;;9.98;5.35;;;;;;;13.67;72.96;96508.00;5047269;28;20056;-78
2022/05/15 01:25:48;;;;;;;10.80;6.28;;;;;;;13.65;73.32;96504.81;5047231;28;20044;-78
2022/05/15 01:28:18;;;;;;;12.07;6.45;;;;;;;13.59;73.17;96508.91;5044546;28;20056;-78
2022/05/15 01:30:49;;;;;;;15.27;6.43;;;;;;;13.57;73.12;96508.41;5047307;28;20052;-78
2022/05/15 01:33:16;;;;;;;7.35;5.18;;;;;;;13.56;73.19;96512.28;5046422;28;20115;-78
2022/05/15 01:35:42;;;;;;;8.27;6.20;;;;;;;13.58;73.68;96512.78;5047600;28;20123;-78
2022/05/15 01:38:11;;;;;;;8.32;5.65;;;;;;;13.54;73.61;96514.56;5046506;28;20071;-78
2022/05/15 01:40:39;;;;;;;14.27;9.38;;;;;;;13.51;73.36;96515.22;5046831;28;20041;-78
2022/05/15 01:43:08;;;;;;;9.90;6.38;;;;;;;13.51;73.45;96515.22;5046664;28;20420;-78
2022/05/15 01:45:35;;;;;;;10.52;5.57;;;;;;;13.46;73.19;96513.47;5046909;28;20052;-77
2022/05/15 01:48:02;;;;;;;8.57;5.75;;;;;;;13.36;73.06;96511.13;5046066;28;20053;-78
2022/05/15 01:50:29;;;;;;;8.90;5.93;;;;;;;13.32;72.95;96512.94;5046701;28;20053;-78
2022/05/15 01:52:56;;;;;;;9.45;6.00;;;;;;;13.26;73.40;96509.59;5046461;28;20063;-78
2022/05/15 01:55:24;;;;;;;8.82;5.43;;;;;;;13.29;73.29;96514.41;5046231;28;20045;-78
2022/05/15 01:57:50;;;;;;;23.67;7.10;;;;;;;13.27;73.44;96515.88;5046789;28;20048;-78
2022/05/15 02:00:21;;;;;;;184.98;168.80;;;;;;;13.27;73.27;96516.69;5046088;28;20092;-78
2022/05/15 02:02:48;;;;;;;491.75;381.35;;;;;;;13.25;73.20;96512.66;5046529;28;20056;-77
2022/05/15 02:05:15;;;;;;;596.42;350.95;;;;;;;13.19;72.90;96512.00;5045928;28;20592;-79
2022/05/15 02:07:42;;;;;;;7.22;5.00;;;;;;;13.12;72.87;96513.69;5046539;28;20059;-78
2022/05/15 02:10:10;;;;;;;8.18;4.93;;;;;;;12.95;73.03;96514.59;5045340;28;20052;-78
2022/05/15 02:12:38;;;;;;;9.00;5.38;;;;;;;12.84;73.34;96518.78;5046199;28;20063;-78
2022/05/15 02:15:07;;;;;;;8.98;4.82;;;;;;;12.78;73.64;96510.78;5045872;28;20057;-78
2022/05/15 02:17:34;;;;;;;10.23;5.38;;;;;;;12.69;73.60;96512.75;5045434;28;20053;-78
2022/05/15 02:20:00;;;;;;;14.77;5.45;;;;;;;12.65;73.82;96505.53;5045881;28;20633;-77
2022/05/15 02:22:27;;;;;;;45.08;11.80;;;;;;;12.59;74.12;96506.84;5045846;28;20045;-78
2022/05/15 02:24:54;;;;;;;181.90;119.22;;;;;;;12.57;74.11;96509.88;5045863;28;20049;-79
2022/05/15 02:27:20;;;;;;;55.28;18.77;;;;;;;12.54;74.26;96502.38;5045262;28;20060;-77
2022/05/15 02:29:48;;;;;;;15.75;5.57;;;;;;;12.49;73.72;96497.88;5045872;28;20049;-77
2022/05/15 02:32:15;;;;;;;30.77;7.57;;;;;;;12.46;73.92;96503.19;5045525;28;20519;-78
2022/05/15 02:34:42;;;;;;;19.77;6.03;;;;;;;12.47;74.15;96499.31;5046115;28;20053;-78
2022/05/15 02:37:08;;;;;;;312.80;279.38;;;;;;;12.47;73.95;96502.06;5049049;28;20055;-78
2022/05/15 02:39:35;;;;;;;54.13;26.08;;;;;;;12.48;73.89;96498.22;5054379;28;20041;-77
2022/05/15 02:42:02;;;;;;;6.30;4.80;;;;;;;12.45;73.54;96491.47;5051064;28;20053;-78
2022/05/15 02:44:28;;;;;;;435.23;325.73;;;;;;;12.43;73.57;96503.84;5047372;28;20123;-78
2022/05/15 02:46:56;;;;;;;44.53;22.25;;;;;;;12.44;73.58;96502.72;5056912;28;20611;-77
2022/05/15 02:52:08;;;;;;;7.97;4.20;;;;;;;12.58;73.98;96494.31;5045803;28;20059;-78
2022/05/15 02:54:35;;;;;;;7.45;4.43;;;;;;;12.62;73.88;96501.53;5046770;28;20069;-78
2022/05/15 02:57:04;;;;;;;7.70;4.20;;;;;;;12.66;73.87;96497.00;5045742;28;20389;-79
2022/05/15 02:59:31;;;;;;;5.82;4.47;;;;;;;12.68;74.21;96497.47;5046113;28;20049;-78
2022/05/15 03:02:00;;;;;;;6.00;4.00;;;;;;;12.72;73.62;96495.69;5045879;28;20049;-78
2022/05/15 03:04:27;;;;;;;5.72;4.38;;;;;;;12.72;73.95;96490.22;5047507;28;20048;-77
2022/05/15 03:06:54;;;;;;;26.85;8.95;;;;;;;12.74;74.07;96498.91;5049992;28;20044;-78
2022/05/15 03:09:21;;;;;;;5.38;3.97;;;;;;;12.75;73.93;96492.31;5050095;28;20057;-78
2022/05/15 03:11:47;;;;;;;5.72;3.90;;;;;;;12.79;73.21;96496.00;5049756;28;20427;-78
2022/05/15 03:14:14;;;;;;;13.57;5.65;;;;;;;12.78;73.57;96499.84;5049245;28;20056;-79
2022/05/15 03:16:41;;;;;;;7.53;4.10;;;;;;;12.77;73.99;96503.72;5049179;28;20057;-78
2022/05/15 03:19:09;;;;;;;7.50;4.38;;;;;;;12.75;73.45;96503.25;5049413;28;20048;-78
2022/05/15 03:21:35;;;;;;;5.80;4.25;;;;;;;12.75;73.74;96505.97;5049553;28;20057;-79
2022/05/15 03:24:05;;;;;;;6.90;4.53;;;;;;;12.72;73.96;96506.63;5049027;28;20055;-77
2022/05/15 03:26:34;;;;;;;8.60;4.95;;;;;;;12.69;73.85;96501.81;5048854;28;20052;-78
2022/05/15 03:29:02;;;;;;;8.38;4.72;;;;;;;12.67;73.74;96503.28;5049431;28;20056;-78
2022/05/15 03:31:28;;;;;;;6.03;4.38;;;;;;;12.65;73.88;96498.16;5049061;28;20523;-78
2022/05/15 03:33:55;;;;;;;7.88;4.75;;;;;;;12.64;73.62;96498.47;5049273;28;20065;-77
2022/05/15 03:36:23;;;;;;;6.50;4.13;;;;;;;12.64;73.91;96510.22;5048869;28;20049;-79
2022/05/15 03:38:52;;;;;;;6.07;4.15;;;;;;;12.63;73.95;96500.38;5049584;28;20049;-77
2022/05/15 03:41:19;;;;;;;6.22;4.00;;;;;;;12.60;74.16;96503.78;5048558;28;20045;-78
2022/05/15 03:43:45;;;;;;;10.38;4.65;;;;;;;12.55;73.34;96506.69;5049073;28;20060;-78
2022/05/15 03:46:12;;;;;;;7.03;3.72;;;;;;;12.54;73.06;96505.91;5047297;28;20053;-79
2022/05/15 03:48:39;;;;;;;8.30;4.20;;;;;;;12.51;72.69;96505.75;5048800;28;20047;-78
2022/05/15 03:51:06;;;;;;;4.75;4.00;;;;;;;12.52;72.97;96504.59;5048411;28;20175;-79
2022/05/15 03:53:34;;;;;;;8.32;4.28;;;;;;;12.51;73.56;96505.75;5049150;28;20048;-77
2022/05/15 03:56:01;;;;;;;8.45;4.20;;;;;;;12.47;73.39;96504.78;5049189;28;20049;-78
2022/05/15 03:58:31;;;;;;;6.25;4.13;;;;;;;12.46;73.27;96508.66;5048546;28;20051;-78
2022/05/15 04:00:57;;;;;;;7.07;4.18;;;;;;;12.43;72.86;96510.13;5048720;28;20052;-78
2022/05/15 04:03:24;;;;;;;8.63;4.30;;;;;;;12.30;72.55;96513.84;5048008;28;20504;-78
2022/05/15 04:05:50;;;;;;;6.05;3.95;;;;;;;12.27;72.77;96511.75;5048958;28;20060;-78
2022/05/15 04:08:17;;;;;;;6.10;3.97;;;;;;;12.30;72.81;96504.84;5048103;28;20049;-78
2022/05/15 04:10:46;;;;;;;5.82;4.32;;;;;;;12.23;72.90;96499.88;5048737;28;20570;-78
2022/05/15 04:13:12;;;;;;;6.50;3.85;;;;;;;12.22;72.92;96499.09;5048148;28;20100;-78
2022/05/15 04:15:39;;;;;;;4.82;3.40;;;;;;;12.33;73.67;96512.41;5048011;28;20048;-78
2022/05/15 04:18:06;;;;;;;5.25;4.07;;;;;;;12.39;73.21;96508.34;5048087;28;20049;-78
2022/05/15 04:20:34;;;;;;;5.50;4.00;;;;;;;12.43;72.56;96509.31;5048362;28;20131;-77
2022/05/15 04:23:00;;;;;;;6.35;3.60;;;;;;;12.49;71.57;96505.28;5048299;28;20087;-79
2022/05/15 04:25:27;;;;;;;7.75;3.70;;;;;;;12.52;71.44;96501.88;5047822;28;20049;-78
2022/05/15 04:27:55;;;;;;;5.10;3.63;;;;;;;12.52;71.29;96507.34;5048260;28;20076;-78
2022/05/15 04:30:25;;;;;;;8.73;3.92;;;;;;;12.56;72.26;96507.50;5047768;28;20730;-79
2022/05/15 04:32:52;;;;;;;5.07;3.70;;;;;;;12.57;71.70;96512.63;5048136;28;20524;-77
2022/05/15 04:35:20;;;;;;;4.15;3.72;;;;;;;12.57;72.27;96503.63;5047891;28;20696;-78
2022/05/15 04:37:46;;;;;;;5.45;4.30;;;;;;;12.60;73.38;96511.97;5050091;28;20052;-77
2022/05/15 04:40:17;;;;;;;8.68;3.97;;;;;;;12.65;74.25;96514.53;5053989;28;20060;-78
2022/05/15 04:42:43;;;;;;;5.70;3.60;;;;;;;12.71;74.12;96507.75;5058466;28;20047;-78
2022/05/15 04:45:12;;;;;;;7.22;4.20;;;;;;;12.77;73.18;96511.91;5048879;28;20486;-78
2022/05/15 04:47:39;;;;;;;5.32;3.47;;;;;;;12.82;72.49;96510.94;5048479;28;20037;-79
2022/05/15 04:50:06;;;;;;;6.85;4.07;;;;;;;12.83;72.51;96517.19;5048214;28;20053;-78
2022/05/15 04:52:33;;;;;;;6.20;4.32;;;;;;;12.84;72.11;96516.06;5048443;28;20400;-78
2022/05/15 04:55:00;;;;;;;7.13;3.80;;;;;;;12.87;72.94;96518.13;5048924;28;20065;-78
2022/05/15 04:57:26;;;;;;;8.00;4.57;;;;;;;12.93;73.43;96522.28;5048380;28;20851;-78
2022/05/15 04:59:53;;;;;;;5.70;3.72;;;;;;;13.00;73.35;96528.06;5048617;28;20060;-78
2022/05/15 05:02:20;;;;;;;7.88;4.35;;;;;;;13.06;72.30;96532.22;5047989;28;20048;-77
2022/05/15 05:04:47;;;;;;;9.90;5.03;;;;;;;13.12;73.02;96535.56;5048386;28;20055;-79
2022/05/15 05:07:13;;;;;;;5.90;4.25;;;;;;;13.18;73.06;96535.03;5047216;28;20527;-78
2022/05/15 05:09:40;;;;;;;8.95;4.10;;;;;;;13.26;73.33;96536.97;5047770;28;20041;-78
2022/05/15 05:12:08;;;;;;;7.35;4.88;;;;;;;13.32;73.14;96534.84;5046817;28;20043;-77
2022/05/15 05:14:35;;;;;;;7.63;3.90;;;;;;;13.38;73.25;96538.19;5047805;28;20052;-78
2022/05/15 05:17:01;;;;;;;4.97;3.90;;;;;;;13.45;72.81;96532.97;5047109;28;20056;-77
2022/05/15 05:19:29;;;;;;;5.10;3.83;;;;;;;13.50;72.66;96532.78;5048114;28;20049;-78
2022/05/15 05:21:56;;;;;;;21.65;13.80;;;;;;;13.54;72.59;96541.94;5047431;28;20045;-78
2022/05/15 05:24:22;;;;;;;5.25;4.00;;;;;;;13.61;72.07;96546.88;5047000;28;20139;-77
2022/05/15 05:26:49;;;;;;;5.70;4.00;;;;;;;13.67;72.16;96540.84;5046358;28;20080;-78
2022/05/15 05:29:15;;;;;;;5.10;3.70;;;;;;;13.75;72.14;96542.72;5045925;28;20051;-78
2022/05/15 05:31:42;;;;;;;211.75;172.65;;;;;;;13.82;71.72;96548.47;5047104;28;20178;-78
2022/05/15 05:34:08;;;;;;;403.10;364.65;;;;;;;13.87;71.41;96554.88;5046319;28;20132;-77
2022/05/15 05:36:36;;;;;;;7.85;4.43;;;;;;;13.91;71.55;96547.59;5047071;28;20041;-78
2022/05/15 05:39:03;;;;;;;9.90;5.00;;;;;;;13.97;72.18;96547.06;5046715;28;20064;-77
2022/05/15 05:41:33;;;;;;;5.45;4.60;;;;;;;14.04;72.69;96543.78;5047465;28;20041;-79
2022/05/15 05:44:00;;;;;;;8.20;4.50;;;;;;;14.09;72.93;96549.88;5047136;28;20049;-77
2022/05/15 05:46:27;;;;;;;7.97;4.03;;;;;;;14.17;72.29;96552.88;5045905;28;20043;-78
2022/05/15 05:48:54;;;;;;;24.00;6.15;;;;;;;14.21;71.65;96554.59;5046202;28;20052;-77
2022/05/15 05:51:20;;;;;;;7.10;4.60;;;;;;;14.26;72.04;96551.66;5046920;28;20052;-79
2022/05/15 05:53:49;;;;;;;6.95;5.10;;;;;;;14.32;71.96;96555.78;5045354;28;20084;-79
2022/05/15 05:56:16;;;;;;;8.98;4.70;;;;;;;14.40;71.72;96550.53;5046031;28;20055;-78
2022/05/15 05:58:42;;;;;;;6.18;4.35;;;;;;;14.46;71.83;96554.66;5045528;28;20052;-79
2022/05/15 06:01:09;;;;;;;8.05;5.15;;;;;;;14.52;72.04;96547.88;5046178;28;20056;-78
2022/05/15 06:06:20;;;;;;;10.15;5.20;;;;;;;14.64;71.13;96553.38;5045955;28;20060;-80
2022/05/15 06:08:46;;;;;;;8.65;5.22;;;;;;;14.70;70.41;96553.97;5046780;28;20531;-79
2022/05/15 06:11:14;;;;;;;9.70;5.00;;;;;;;14.76;70.10;96547.91;5046261;28;20057;-78
2022/05/15 06:13:41;;;;;;;8.55;5.30;;;;;;;14.80;70.78;96548.84;5046590;28;20045;-77
2022/05/15 06:16:09;;;;;;;6.60;5.38;;;;;;;14.95;70.46;96549.34;5046241;28;20049;-78
2022/05/15 06:18:36;;;;;;;7.68;5.45;;;;;;;15.04;70.77;96552.78;5046548;28;20048;-79
2022/05/15 06:21:02;;;;;;;8.95;5.65;;;;;;;15.11;70.04;96553.00;5045607;28;20055;-79
2022/05/15 06:23:29;;;;;;;9.60;5.45;;;;;;;15.24;69.68;96548.31;5046281;28;20051;-79
2022/05/15 06:25:55;;;;;;;9.13;5.18;;;;;;;15.34;69.35;96551.38;5046416;28;20056;-78
2022/05/15 06:28:23;;;;;;;8.18;5.55;;;;;;;15.47;68.35;96554.94;5045871;28;20055;-78
2022/05/15 06:30:50;;;;;;;8.68;5.32;;;;;;;15.58;68.54;96555.25;5046513;28;20551;-78
2022/05/15 06:33:17;;;;;;;9.70;4.93;;;;;;;15.56;61.57;96552.06;5045251;28;20048;-78
2022/05/15 06:35:44;;;;;;;6.05;4.70;;;;;;;15.49;60.31;96555.38;5046691;28;20060;-78
2022/05/15 06:38:10;;;;;;;9.80;4.35;;;;;;;15.56;59.98;96554.81;5046221;28;20052;-78
2022/05/15 06:40:36;;;;;;;6.93;4.30;;;;;;;15.63;59.75;96563.28;5049484;28;20040;-78
2022/05/15 06:43:04;;;;;;;7.10;4.10;;;;;;;15.84;60.99;96557.66;5057262;28;20051;-80
2022/05/15 06:45:32;;;;;;;10.40;4.15;;;;;;;15.98;61.25;96560.03;5057109;28;20481;-77
2022/05/15 06:47:58;;;;;;;4.63;3.38;;;;;;;16.07;58.40;96563.41;5047835;28;20044;-78
2022/05/15 06:50:25;;;;;;;6.75;3.22;;;;;;;16.24;59.02;96559.59;5045521;28;20052;-78
2022/05/15 06:52:51;;;;;;;5.68;3.50;;;;;;;16.42;56.84;96558.94;5047678;28;20063;-76
2022/05/15 06:55:21;;;;;;;6.88;3.30;;;;;;;16.59;55.82;96560.56;5044551;28;20049;-78
2022/05/15 06:57:47;;;;;;;7.93;3.47;;;;;;;16.71;54.61;96568.00;5045503;28;20076;-78
2022/05/15 07:00:17;;;;;;;8.85;3.03;;;;;;;16.80;56.02;96562.31;5044734;28;20138;-78
2022/05/15 07:02:46;;;;;;;7.32;3.55;;;;;;;16.78;51.19;96568.19;5045135;28;20062;-77
2022/05/15 07:05:14;;;;;;;5.70;2.97;;;;;;;16.92;52.88;96568.56;5044836;28;20049;-78
2022/05/15 07:07:43;;;;;;;6.07;2.80;;;;;;;17.03;49.70;96562.53;5046244;28;20060;-78
2022/05/15 07:10:10;;;;;;;10.35;6.97;;;;;;;17.06;50.70;96559.84;5044565;28;20084;-78
2022/05/15 07:12:37;;;;;;;612.78;528.15;;;;;;;17.21;53.02;96547.25;5045068;28;20045;-78
2022/05/15 07:15:05;;;;;;;10.98;4.03;;;;;;;17.31;53.86;96546.69;5044243;28;20068;-78
2022/05/15 07:17:32;;;;;;;8.50;3.42;;;;;;;17.45;52.98;96555.31;5044721;28;20045;-78
2022/05/15 07:20:00;;;;;;;6.57;3.63;;;;;;;17.58;54.28;96555.97;5045407;28;20048;-78
2022/05/15 07:22:26;;;;;;;9.32;3.80;;;;;;;17.69;56.02;96561.72;5044862;28;20045;-77
2022/05/15 07:24:53;;;;;;;9.43;4.65;;;;;;;17.77;58.06;96555.28;5044802;28;20052;-78
2022/05/15 07:27:19;;;;;;;8.18;4.55;;;;;;;17.84;58.49;96558.16;5046647;28;20253;-78
2022/05/15 07:29:46;;;;;;;8.55;4.95;;;;;;;17.92;59.86;96553.63;5045017;28;20056;-78
2022/05/15 07:32:12;;;;;;;22.55;12.98;;;;;;;17.82;60.53;96551.44;5043245;28;20037;-78
2022/05/15 07:34:40;;;;;;;108.57;98.82;;;;;;;18.02;59.00;96552.28;5039346;28;20049;-77
2022/05/15 07:37:08;;;;;;;8.13;4.22;;;;;;;18.19;59.72;96554.59;5043650;28;20114;-78
2022/05/15 07:39:35;;;;;;;8.18;3.50;;;;;;;18.33;59.53;96556.84;5044875;28;20051;-77
2022/05/15 07:42:02;;;;;;;558.05;502.13;;;;;;;18.45;56.75;96545.66;5043297;28;20060;-78
2022/05/15 07:44:28;;;;;;;7.35;3.22;;;;;;;18.65;57.49;96551.94;5045659;28;20056;-77
2022/05/15 07:46:54;;;;;;;6.50;3.20;;;;;;;18.84;55.81;96538.13;5045004;28;20049;-77
2022/05/15 07:49:21;;;;;;;6.65;2.88;;;;;;;19.07;55.03;96545.63;5044873;28;21526;-77
2022/05/15 07:51:48;;;;;;;3.97;3.00;;;;;;;19.29;54.69;96539.28;5050549;28;20073;-78
2022/05/15 07:54:19;;;;;;;17.17;14.18;;;;;;;19.84;47.82;96539.75;5049494;28;20495;-78
2022/05/15 07:56:45;;;;;;;5.03;2.72;;;;;;;21.33;48.17;96542.63;5048855;28;20052;-78
2022/05/15 07:59:12;;;;;;;4.65;2.72;;;;;;;22.71;45.32;96533.50;5047961;28;20665;-79
2022/05/15 08:01:39;;;;;;;7.13;3.17;;;;;;;23.62;42.00;96536.75;5048219;28;20041;-78
2022/05/15 08:04:06;;;;;;;6.85;3.05;;;;;;;24.24;38.69;96531.88;5048944;28;20099;-78
2022/05/15 08:09:21;;;;;;;4.03;2.30;;;;;;;24.85;38.99;96537.97;5048905;28;20123;-78
2022/05/15 08:11:47;;;;;;;7.78;2.63;;;;;;;25.08;40.84;96537.47;5049066;28;20423;-77
2022/05/15 08:14:14;;;;;;;7.15;2.72;;;;;;;25.05;35.90;96541.03;5048998;28;20499;-78
2022/05/15 08:16:41;;;;;;;5.45;2.83;;;;;;;25.04;39.14;96534.66;5048348;28;20435;-77
2022/05/15 08:24:41;;;;;;;4.13;2.20;;;;;;;25.37;38.19;96546.41;5048921;28;20048;-79
2022/05/15 08:27:09;;;;;;;8.40;2.97;;;;;;;25.31;36.35;96539.69;5048329;28;20045;-78
2022/05/15 08:29:36;;;;;;;6.80;2.88;;;;;;;25.12;40.71;96536.25;5049081;28;20048;-77
2022/05/15 08:32:03;;;;;;;13.77;8.82;;;;;;;25.06;42.03;96532.31;5048324;28;20064;-78
2022/05/15 08:34:29;;;;;;;3.85;2.60;;;;;;;25.18;44.20;96539.38;5048533;28;20049;-78
2022/05/15 08:36:56;;;;;;;4.57;2.58;;;;;;;25.28;39.90;96537.72;5048214;28;20053;-78
2022/05/15 08:39:23;;;;;;;3.72;2.30;;;;;;;25.30;41.73;96536.09;5048061;28;20049;-78
2022/05/15 08:41:56;;;;;;;4.82;2.30;;;;;;;25.36;42.17;96536.47;5048435;28;20045;-78
2022/05/15 08:44:29;;;;;;;5.72;2.63;;;;;;;25.35;39.71;96537.66;5049720;28;20048;-78
2022/05/15 08:47:16;;;;;;;4.65;2.47;;;;;;;25.36;40.73;96539.25;5053332;28;20084;-76
2022/05/15 08:49:51;;;;;;;6.22;2.72;;;;;;;25.16;40.22;96539.81;5054189;28;20144;-77
2022/05/15 08:52:22;;;;;;;4.50;2.67;;;;;;;25.11;40.90;96540.25;5052945;28;20116;-78
2022/05/15 08:55:04;;;;;;;4.63;2.65;;;;;;;25.06;44.38;96540.69;5052480;28;20045;-78
2022/05/15 08:57:38;;;;;;;4.28;2.53;;;;;;;25.11;42.15;96545.81;5052452;28;20055;-78
2022/05/15 09:00:10;;;;;;;7.53;2.88;;;;;;;25.14;43.75;96539.41;5050720;28;20048;-78
2022/05/15 09:02:40;;;;;;;7.88;3.08;;;;;;;25.14;46.80;96539.41;5049519;28;20065;-79
2022/05/15 09:05:08;;;;;;;5.68;3.10;;;;;;;25.20;42.85;96540.56;5049999;28;20128;-78
2022/05/15 09:07:49;;;;;;;5.75;2.40;;;;;;;25.15;42.47;96540.97;5050034;28;20053;-78
2022/05/15 09:10:24;;;;;;;4.18;2.63;;;;;;;25.22;41.21;96552.09;5049441;28;20053;-78
2022/05/15 09:13:04;;;;;;;5.95;2.80;;;;;;;25.14;42.64;96547.75;5049405;28;20045;-78
2022/05/15 09:15:35;;;;;;;3.75;2.10;;;;;;;25.24;40.82;96555.25;5035707;28;20504;-78
2022/05/15 09:18:05;;;;;;;9.15;2.70;;;;;;;25.05;38.52;96547.41;5029301;28;20045;-78
2022/05/15 09:20:57;;;;;;;14.02;4.25;;;;;;;25.01;45.96;96546.66;5029646;28;20378;-78
2022/05/15 09:23:26;;;;;;;13.70;4.55;;;;;;;25.04;39.47;96543.03;5029580;28;20053;-78
2022/05/15 09:25:57;;;;;;;22.67;4.72;;;;;;;25.15;42.06;96546.56;5030132;28;20152;-79
2022/05/15 09:28:27;;;;;;;28.63;5.68;;;;;;;25.34;40.58;96552.81;5028019;28;20045;-78
2022/05/15 09:30:56;;;;;;;31.48;7.00;;;;;;;25.28;39.67;96551.66;5029683;28;20060;-78
2022/05/15 09:33:27;;;;;;;239.00;221.75;;;;;;;25.33;46.66;96540.09;5028732;28;20669;-77
2022/05/15 09:36:22;;;;;;;5.82;2.20;;;;;;;25.45;40.23;96545.16;5029727;28;20053;-78
2022/05/15 09:39:07;;;;;;;56.97;48.65;;;;;;;25.51;41.07;96535.13;5029377;28;20143;-77
2022/05/15 09:44:26;;;;;;;8.02;2.63;;;;;;;25.64;39.17;96538.22;5028336;28;20052;-79
2022/05/15 09:46:58;;;;;;;20.23;4.30;;;;;;;25.81;39.66;96530.91;5047493;28;20451;-78
2022/05/15 09:49:28;;;;;;;451.55;415.00;;;;;;;25.93;40.81;96541.53;5047425;28;20535;-78
2022/05/15 09:51:58;;;;;;;309.08;286.80;;;;;;;26.01;38.70;96537.50;5047673;28;20049;-78
2022/05/15 09:54:30;;;;;;;586.53;545.20;;;;;;;25.91;33.66;96541.97;5047146;28;20057;-79
2022/05/15 09:57:09;;;;;;;972.77;896.33;;;;;;;25.76;36.78;96535.72;5046528;28;20405;-78
2022/05/15 09:59:39;;;;;;;909.42;837.67;;;;;;;25.84;41.88;96536.47;5046762;28;20049;-78
2022/05/15 10:02:06;;;;;;;4.53;1.70;;;;;;;25.91;36.46;96533.59;5046778;28;20471;-77
2022/05/15 10:04:39;;;;;;;6.45;2.00;;;;;;;26.07;40.20;96533.03;5047189;28;20586;-78
2022/05/15 10:07:07;;;;;;;;;;;;;;;26.16;37.60;96519.38;5046824;28;20072;-78
2022/05/15 10:09:36;;;;;;;7.07;1.67;;;;;;;26.14;35.54;96526.56;5047548;28;19925;-77
2022/05/15 10:12:13;;;;;;;5.18;1.75;;;;;;;25.98;31.39;96529.94;5046232;28;20044;-78
2022/05/15 10:14:47;;;;;;;4.18;1.45;;;;;;;25.99;36.31;96531.50;5039852;28;20091;-79
2022/05/15 10:17:15;;;;;;;7.80;2.03;;;;;;;25.96;30.25;96537.94;5026118;28;20041;-77
2022/05/15 10:19:47;;;;;;;8.70;1.95;;;;;;;25.94;32.16;96523.59;5026502;28;20050;-78
2022/05/15 10:22:32;;;;;;;3.75;1.67;;;;;;;25.85;32.40;96517.72;5026993;28;20052;-77
2022/05/15 10:25:08;;;;;;;19.77;3.45;;;;;;;25.86;36.32;96522.09;5026711;28;20686;-78
2022/05/15 10:27:41;;;;;;;12.40;3.30;;;;;;;25.85;34.97;96515.72;5025430;28;20050;-78
2022/05/15 10:30:12;;;;;;;20.85;5.15;;;;;;;25.82;34.88;96515.75;5026471;28;20049;-78
2022/05/15 10:32:42;;;;;;;7.07;2.00;;;;;;;25.85;32.46;96520.53;5027629;28;20049;-78
2022/05/15 10:35:13;;;;;;;30.05;4.70;;;;;;;25.77;34.48;96509.41;5026985;28;20049;-78
2022/05/15 10:37:54;;;;;;;9.18;2.63;;;;;;;25.91;34.45;96502.91;5026848;28;20056;-78
2022/05/15 10:40:27;;;;;;;7.88;2.92;;;;;;;25.96;35.39;96498.88;5026510;28;20041;-78
2022/05/15 10:43:08;;;;;;;18.52;3.58;;;;;;;25.92;35.34;96498.13;5027197;28;20057;-79
2022/05/15 10:45:41;;;;;;;5.25;2.20;;;;;;;25.94;36.13;96493.69;5041163;28;20085;-78
2022/05/15 10:48:20;;;;;;;22.63;4.50;;;;;;;25.93;34.90;96494.13;5049423;28;20500;-78
2022/05/15 10:50:56;;;;;;;5.13;2.40;;;;;;;25.89;34.89;96493.34;5053335;28;20045;-78
2022/05/15 10:59:45;;;;;;;11.23;4.72;;;;;;;25.54;35.36;96486.13;5016967;28;20408;-78
2022/05/15 11:02:41;;;;;;;5.72;1.90;;;;;;;25.53;36.26;96482.56;5052106;28;20246;-79
2022/05/15 11:05:13;;;;;;;5.30;2.35;;;;;;;25.55;34.97;96485.72;5053009;28;20049;-78
2022/05/15 11:07:49;;;;;;;30.58;10.23;;;;;;;25.55;31.47;96477.34;5053778;28;20056;-79
2022/05/15 11:10:22;;;;;;;5.80;2.45;;;;;;;25.51;33.57;96479.38;5051661;28;20045;-77
2022/05/15 11:13:03;;;;;;;30.33;5.22;;;;;;;25.55;35.26;96484.94;5052550;28;20053;-78
2022/05/15 11:15:42;;;;;;;28.60;4.97;;;;;;;25.60;35.63;96481.69;5050154;28;20049;-78
2022/05/15 11:18:25;;;;;;;42.65;6.40;;;;;;;25.69;39.46;96474.44;5050069;28;20048;-78
2022/05/15 11:20:58;;;;;;;18.50;4.18;;;;;;;25.75;35.14;96461.63;5049184;28;20049;-78
2022/05/15 11:23:29;;;;;;;7.72;2.92;;;;;;;25.67;36.32;96467.66;5048021;28;20044;-78
2022/05/15 11:26:02;;;;;;;8.55;3.25;;;;;;;25.62;34.15;96460.53;5051736;28;20045;-78
2022/05/15 11:28:31;;;;;;;;;;;;;;;25.63;34.33;96452.97;5053451;28;20044;-78
2022/05/15 11:31:03;;;;;;;14.95;3.65;;;;;;;25.68;39.60;96450.50;5052089;28;19932;-78
2022/05/15 11:33:49;;;;;;;24.33;4.25;;;;;;;25.81;34.60;96447.25;5051636;28;20045;-78
2022/05/15 11:36:30;;;;;;;33.65;5.70;;;;;;;25.74;35.85;96448.91;5051989;28;20051;-78
2022/05/15 11:39:07;;;;;;;3.63;2.22;;;;;;;25.91;36.84;96447.13;5050996;28;20096;-78
2022/05/15 11:41:41;;;;;;;5.60;2.33;;;;;;;25.90;35.88;96450.31;5052173;28;20041;-79
2022/05/15 11:44:12;;;;;;;4.80;2.08;;;;;;;25.91;36.27;96449.13;5048419;28;20049;-77
2022/05/15 11:46:59;;;;;;;15.18;4.72;;;;;;;25.89;34.14;96448.72;5048344;28;20128;-78
2022/05/15 11:49:34;;;;;;;28.25;5.82;;;;;;;25.89;35.37;96443.16;5049443;28;20048;-78
2022/05/15 11:52:33;;;;;;;23.52;5.00;;;;;;;25.96;38.64;96443.06;5050093;28;20134;-78
2022/05/15 11:55:00;;;;;;;31.85;8.52;;;;;;;25.94;38.48;96437.09;5050835;28;20068;-78
2022/05/15 11:57:38;;;;;;;10.55;3.28;;;;;;;25.92;36.96;96431.94;5050370;28;20049;-78
2022/05/15 12:00:12;;;;;;;3.72;1.60;;;;;;;25.85;34.25;96431.25;5050209;28;20057;-77
2022/05/15 12:02:55;;;;;;;15.23;3.55;;;;;;;25.72;33.57;96425.38;5051002;28;20053;-78